sensor_id;sensor_type;location;lat;lon;timestamp;P1;durP1;ratioP1;P2;durP2;ratioP2
60030;SDS011;45901;47.600;9.890;2022-10-15T00:01:10;0.40;;;0.33;;
60030;SDS011;45901;47.600;9.890;2022-10-15T00:03:40;0.70;;;0.50;;
60030;SDS011;45901;47.600;9.890;2022-10-15T00:06:11;0.40;;;0.40;;
60030;SDS011;45901;47.600;9.890;2022-10-15T00:08:44;0.40;;;0.37;;
60030;SDS011;45901;47.600;9.890;2022-10-15T00:11:13;0.63;;;0.40;;
60030;SDS011;45901;47.600;9.890;2022-10-15T00:13:45;0.93;;;0.33;;
60030;SDS011;45901;47.600;9.890;2022-10-15T00:16:15;0.73;;;0.40;;
60030;SDS011;45901;47.600;9.890;2022-10-15T00:18:45;1.00;;;0.33;;
60030;SDS011;45901;47.600;9.890;2022-10-15T00:21:21;0.30;;;0.20;;
60030;SDS011;45901;47.600;9.890;2022-10-15T00:23:48;3.03;;;0.50;;
60030;SDS011;45901;47.600;9.890;2022-10-15T00:26:19;1.47;;;0.40;;
60030;SDS011;45901;47.600;9.890;2022-10-15T00:28:51;0.70;;;0.40;;
60030;SDS011;45901;47.600;9.890;2022-10-15T00:31:20;0.93;;;0.37;;
60030;SDS011;45901;47.600;9.890;2022-10-15T00:33:52;1.23;;;0.50;;
60030;SDS011;45901;47.600;9.890;2022-10-15T00:36:24;2.17;;;0.40;;
60030;SDS011;45901;47.600;9.890;2022-10-15T00:38:55;2.97;;;0.30;;
60030;SDS011;45901;47.600;9.890;2022-10-15T00:41:26;0.23;;;0.13;;
60030;SDS011;45901;47.600;9.890;2022-10-15T00:47:36;0.90;;;0.30;;
60030;SDS011;45901;47.600;9.890;2022-10-15T00:50:08;2.10;;;0.30;;
60030;SDS011;45901;47.600;9.890;2022-10-15T00:52:39;0.33;;;0.33;;
60030;SDS011;45901;47.600;9.890;2022-10-15T00:55:38;2.50;;;0.50;;
60030;SDS011;45901;47.600;9.890;2022-10-15T00:58:12;0.70;;;0.23;;
60030;SDS011;45901;47.600;9.890;2022-10-15T01:00:49;0.30;;;0.30;;
60030;SDS011;45901;47.600;9.890;2022-10-15T01:03:16;1.80;;;0.20;;
60030;SDS011;45901;47.600;9.890;2022-10-15T01:06:14;0.23;;;0.20;;
60030;SDS011;45901;47.600;9.890;2022-10-15T01:08:42;0.20;;;0.20;;
60030;SDS011;45901;47.600;9.890;2022-10-15T01:11:23;0.37;;;0.30;;
60030;SDS011;45901;47.600;9.890;2022-10-15T01:14:06;0.20;;;0.20;;
60030;SDS011;45901;47.600;9.890;2022-10-15T01:16:58;0.50;;;0.30;;
60030;SDS011;45901;47.600;9.890;2022-10-15T01:19:38;0.20;;;0.20;;
60030;SDS011;45901;47.600;9.890;2022-10-15T01:22:34;0.23;;;0.20;;
60030;SDS011;45901;47.600;9.890;2022-10-15T01:25:21;1.17;;;0.30;;
60030;SDS011;45901;47.600;9.890;2022-10-15T01:28:02;0.50;;;0.20;;
60030;SDS011;45901;47.600;9.890;2022-10-15T01:30:52;0.93;;;0.37;;
60030;SDS011;45901;47.600;9.890;2022-10-15T01:33:30;2.53;;;0.23;;
60030;SDS011;45901;47.600;9.890;2022-10-15T01:36:08;0.47;;;0.30;;
60030;SDS011;45901;47.600;9.890;2022-10-15T01:38:48;0.53;;;0.30;;
60030;SDS011;45901;47.600;9.890;2022-10-15T01:41:25;2.30;;;0.40;;
60030;SDS011;45901;47.600;9.890;2022-10-15T01:44:06;0.60;;;0.40;;
60030;SDS011;45901;47.600;9.890;2022-10-15T01:46:41;0.20;;;0.20;;
60030;SDS011;45901;47.600;9.890;2022-10-15T01:49:14;0.53;;;0.30;;
60030;SDS011;45901;47.600;9.890;2022-10-15T01:51:46;0.90;;;0.40;;
60030;SDS011;45901;47.600;9.890;2022-10-15T01:54:21;0.30;;;0.30;;
60030;SDS011;45901;47.600;9.890;2022-10-15T01:56:51;0.33;;;0.33;;
60030;SDS011;45901;47.600;9.890;2022-10-15T01:59:21;0.30;;;0.27;;
60030;SDS011;45901;47.600;9.890;2022-10-15T02:02:01;2.30;;;0.40;;
60030;SDS011;45901;47.600;9.890;2022-10-15T02:04:34;0.63;;;0.40;;
60030;SDS011;45901;47.600;9.890;2022-10-15T02:07:03;0.30;;;0.20;;
60030;SDS011;45901;47.600;9.890;2022-10-15T02:09:38;0.87;;;0.30;;
60030;SDS011;45901;47.600;9.890;2022-10-15T02:12:19;0.20;;;0.20;;
60030;SDS011;45901;47.600;9.890;2022-10-15T02:15:04;0.30;;;0.30;;
60030;SDS011;45901;47.600;9.890;2022-10-15T02:17:40;0.10;;;0.10;;
60030;SDS011;45901;47.600;9.890;2022-10-15T02:20:19;0.70;;;0.30;;
60030;SDS011;45901;47.600;9.890;2022-10-15T02:22:52;0.10;;;0.10;;
60030;SDS011;45901;47.600;9.890;2022-10-15T02:25:25;0.90;;;0.30;;
60030;SDS011;45901;47.600;9.890;2022-10-15T02:27:55;0.10;;;0.10;;
60030;SDS011;45901;47.600;9.890;2022-10-15T02:30:27;0.83;;;0.10;;
60030;SDS011;45901;47.600;9.890;2022-10-15T02:35:49;0.77;;;0.33;;
60030;SDS011;45901;47.600;9.890;2022-10-15T02:38:19;0.87;;;0.20;;
60030;SDS011;45901;47.600;9.890;2022-10-15T02:40:55;0.50;;;0.20;;
60030;SDS011;45901;47.600;9.890;2022-10-15T02:43:35;0.20;;;0.20;;
60030;SDS011;45901;47.600;9.890;2022-10-15T02:46:06;0.33;;;0.23;;
60030;SDS011;45901;47.600;9.890;2022-10-15T02:48:38;1.47;;;0.60;;
60030;SDS011;45901;47.600;9.890;2022-10-15T02:51:06;0.63;;;0.50;;
60030;SDS011;45901;47.600;9.890;2022-10-15T02:53:36;0.70;;;0.40;;
60030;SDS011;45901;47.600;9.890;2022-10-15T02:56:06;0.50;;;0.40;;
60030;SDS011;45901;47.600;9.890;2022-10-15T02:58:36;1.03;;;0.30;;
60030;SDS011;45901;47.600;9.890;2022-10-15T03:01:04;1.50;;;0.30;;
60030;SDS011;45901;47.600;9.890;2022-10-15T03:03:39;0.60;;;0.30;;
60030;SDS011;45901;47.600;9.890;2022-10-15T03:06:13;1.10;;;0.37;;
60030;SDS011;45901;47.600;9.890;2022-10-15T03:08:42;1.33;;;0.40;;
60030;SDS011;45901;47.600;9.890;2022-10-15T03:11:12;0.30;;;0.30;;
60030;SDS011;45901;47.600;9.890;2022-10-15T03:13:41;1.27;;;0.33;;
60030;SDS011;45901;47.600;9.890;2022-10-15T03:16:12;0.23;;;0.20;;
60030;SDS011;45901;47.600;9.890;2022-10-15T03:18:43;0.80;;;0.30;;
60030;SDS011;45901;47.600;9.890;2022-10-15T03:21:16;0.60;;;0.40;;
60030;SDS011;45901;47.600;9.890;2022-10-15T03:23:44;1.50;;;0.40;;
60030;SDS011;45901;47.600;9.890;2022-10-15T03:26:14;0.57;;;0.30;;
60030;SDS011;45901;47.600;9.890;2022-10-15T03:28:44;0.83;;;0.30;;
60030;SDS011;45901;47.600;9.890;2022-10-15T03:31:15;0.70;;;0.40;;
60030;SDS011;45901;47.600;9.890;2022-10-15T03:33:48;0.40;;;0.30;;
60030;SDS011;45901;47.600;9.890;2022-10-15T03:36:16;0.50;;;0.30;;
60030;SDS011;45901;47.600;9.890;2022-10-15T03:38:47;0.23;;;0.17;;
60030;SDS011;45901;47.600;9.890;2022-10-15T03:41:18;1.53;;;0.30;;
60030;SDS011;45901;47.600;9.890;2022-10-15T03:43:50;0.53;;;0.27;;
60030;SDS011;45901;47.600;9.890;2022-10-15T03:46:18;0.80;;;0.20;;
60030;SDS011;45901;47.600;9.890;2022-10-15T03:48:48;0.13;;;0.13;;
60030;SDS011;45901;47.600;9.890;2022-10-15T03:51:16;0.90;;;0.30;;
60030;SDS011;45901;47.600;9.890;2022-10-15T03:53:43;0.20;;;0.20;;
60030;SDS011;45901;47.600;9.890;2022-10-15T03:56:10;0.20;;;0.20;;
60030;SDS011;45901;47.600;9.890;2022-10-15T03:58:38;0.30;;;0.30;;
60030;SDS011;45901;47.600;9.890;2022-10-15T04:01:07;1.33;;;0.30;;
60030;SDS011;45901;47.600;9.890;2022-10-15T04:03:35;1.60;;;0.20;;
60030;SDS011;45901;47.600;9.890;2022-10-15T04:06:04;0.73;;;0.40;;
60030;SDS011;45901;47.600;9.890;2022-10-15T04:08:32;0.40;;;0.20;;
60030;SDS011;45901;47.600;9.890;2022-10-15T04:11:00;0.47;;;0.20;;
60030;SDS011;45901;47.600;9.890;2022-10-15T04:13:27;0.53;;;0.20;;
60030;SDS011;45901;47.600;9.890;2022-10-15T04:15:55;2.13;;;0.30;;
60030;SDS011;45901;47.600;9.890;2022-10-15T04:18:22;0.20;;;0.20;;
60030;SDS011;45901;47.600;9.890;2022-10-15T04:20:49;0.50;;;0.20;;
60030;SDS011;45901;47.600;9.890;2022-10-15T04:23:18;0.30;;;0.30;;
60030;SDS011;45901;47.600;9.890;2022-10-15T04:25:45;2.37;;;0.30;;
60030;SDS011;45901;47.600;9.890;2022-10-15T04:28:13;3.77;;;0.20;;
60030;SDS011;45901;47.600;9.890;2022-10-15T04:30:40;0.40;;;0.20;;
60030;SDS011;45901;47.600;9.890;2022-10-15T04:33:08;0.30;;;0.10;;
60030;SDS011;45901;47.600;9.890;2022-10-15T04:35:35;0.20;;;0.20;;
60030;SDS011;45901;47.600;9.890;2022-10-15T04:38:02;0.40;;;0.27;;
60030;SDS011;45901;47.600;9.890;2022-10-15T04:40:31;2.30;;;0.27;;
60030;SDS011;45901;47.600;9.890;2022-10-15T04:42:58;0.20;;;0.20;;
60030;SDS011;45901;47.600;9.890;2022-10-15T04:45:26;0.27;;;0.27;;
60030;SDS011;45901;47.600;9.890;2022-10-15T04:47:55;0.20;;;0.20;;
60030;SDS011;45901;47.600;9.890;2022-10-15T04:50:22;3.43;;;0.20;;
60030;SDS011;45901;47.600;9.890;2022-10-15T04:52:49;0.50;;;0.27;;
60030;SDS011;45901;47.600;9.890;2022-10-15T04:55:17;0.40;;;0.30;;
60030;SDS011;45901;47.600;9.890;2022-10-15T04:57:47;0.50;;;0.30;;
60030;SDS011;45901;47.600;9.890;2022-10-15T05:00:14;0.87;;;0.30;;
60030;SDS011;45901;47.600;9.890;2022-10-15T05:02:41;0.73;;;0.40;;
60030;SDS011;45901;47.600;9.890;2022-10-15T05:05:11;0.90;;;0.40;;
60030;SDS011;45901;47.600;9.890;2022-10-15T05:07:38;0.73;;;0.40;;
60030;SDS011;45901;47.600;9.890;2022-10-15T05:10:06;0.40;;;0.30;;
60030;SDS011;45901;47.600;9.890;2022-10-15T05:12:34;1.03;;;0.40;;
60030;SDS011;45901;47.600;9.890;2022-10-15T05:15:04;0.37;;;0.20;;
60030;SDS011;45901;47.600;9.890;2022-10-15T05:17:37;1.20;;;0.30;;
60030;SDS011;45901;47.600;9.890;2022-10-15T05:21:10;0.20;;;0.20;;
60030;SDS011;45901;47.600;9.890;2022-10-15T05:23:38;0.50;;;0.20;;
60030;SDS011;45901;47.600;9.890;2022-10-15T05:26:11;0.47;;;0.20;;
60030;SDS011;45901;47.600;9.890;2022-10-15T05:28:41;1.13;;;0.20;;
60030;SDS011;45901;47.600;9.890;2022-10-15T05:31:10;0.27;;;0.20;;
60030;SDS011;45901;47.600;9.890;2022-10-15T05:33:39;0.73;;;0.30;;
60030;SDS011;45901;47.600;9.890;2022-10-15T05:36:31;1.20;;;0.60;;
60030;SDS011;45901;47.600;9.890;2022-10-15T05:39:07;0.93;;;0.50;;
60030;SDS011;45901;47.600;9.890;2022-10-15T05:41:36;5.20;;;2.93;;
60030;SDS011;45901;47.600;9.890;2022-10-15T05:44:03;0.90;;;0.40;;
60030;SDS011;45901;47.600;9.890;2022-10-15T05:46:32;0.60;;;0.40;;
60030;SDS011;45901;47.600;9.890;2022-10-15T05:49:00;0.83;;;0.40;;
60030;SDS011;45901;47.600;9.890;2022-10-15T05:51:27;0.80;;;0.60;;
60030;SDS011;45901;47.600;9.890;2022-10-15T05:53:55;0.70;;;0.47;;
60030;SDS011;45901;47.600;9.890;2022-10-15T05:56:24;1.03;;;0.50;;
60030;SDS011;45901;47.600;9.890;2022-10-15T05:58:51;1.63;;;0.90;;
60030;SDS011;45901;47.600;9.890;2022-10-15T06:01:19;1.77;;;0.93;;
60030;SDS011;45901;47.600;9.890;2022-10-15T06:03:48;1.07;;;0.70;;
60030;SDS011;45901;47.600;9.890;2022-10-15T06:06:16;1.10;;;0.80;;
60030;SDS011;45901;47.600;9.890;2022-10-15T06:08:45;2.30;;;1.40;;
60030;SDS011;45901;47.600;9.890;2022-10-15T06:11:13;0.90;;;0.70;;
60030;SDS011;45901;47.600;9.890;2022-10-15T06:13:42;0.60;;;0.33;;
60030;SDS011;45901;47.600;9.890;2022-10-15T06:16:10;0.60;;;0.53;;
60030;SDS011;45901;47.600;9.890;2022-10-15T06:18:39;1.60;;;0.70;;
60030;SDS011;45901;47.600;9.890;2022-10-15T06:21:08;0.60;;;0.30;;
60030;SDS011;45901;47.600;9.890;2022-10-15T06:23:36;2.40;;;0.70;;
60030;SDS011;45901;47.600;9.890;2022-10-15T06:26:04;1.90;;;0.70;;
60030;SDS011;45901;47.600;9.890;2022-10-15T06:28:33;1.27;;;0.77;;
60030;SDS011;45901;47.600;9.890;2022-10-15T06:31:01;2.30;;;0.80;;
60030;SDS011;45901;47.600;9.890;2022-10-15T06:33:30;1.80;;;1.10;;
60030;SDS011;45901;47.600;9.890;2022-10-15T06:36:05;1.13;;;0.80;;
60030;SDS011;45901;47.600;9.890;2022-10-15T06:38:40;3.37;;;0.87;;
60030;SDS011;45901;47.600;9.890;2022-10-15T06:41:18;1.23;;;0.30;;
60030;SDS011;45901;47.600;9.890;2022-10-15T06:43:47;1.97;;;1.10;;
60030;SDS011;45901;47.600;9.890;2022-10-15T06:46:21;1.20;;;0.70;;
60030;SDS011;45901;47.600;9.890;2022-10-15T06:49:04;2.30;;;0.90;;
60030;SDS011;45901;47.600;9.890;2022-10-15T06:51:35;2.20;;;0.90;;
60030;SDS011;45901;47.600;9.890;2022-10-15T06:54:05;0.60;;;0.50;;
60030;SDS011;45901;47.600;9.890;2022-10-15T06:56:36;0.50;;;0.40;;
60030;SDS011;45901;47.600;9.890;2022-10-15T06:59:06;0.67;;;0.40;;
60030;SDS011;45901;47.600;9.890;2022-10-15T07:01:49;0.60;;;0.60;;
60030;SDS011;45901;47.600;9.890;2022-10-15T07:04:18;0.60;;;0.40;;
60030;SDS011;45901;47.600;9.890;2022-10-15T07:06:52;0.83;;;0.67;;
60030;SDS011;45901;47.600;9.890;2022-10-15T07:09:27;3.37;;;0.73;;
60030;SDS011;45901;47.600;9.890;2022-10-15T07:11:54;6.83;;;2.87;;
60030;SDS011;45901;47.600;9.890;2022-10-15T07:14:23;2.83;;;1.03;;
60030;SDS011;45901;47.600;9.890;2022-10-15T07:16:51;1.90;;;0.90;;
60030;SDS011;45901;47.600;9.890;2022-10-15T07:19:22;1.10;;;0.90;;
60030;SDS011;45901;47.600;9.890;2022-10-15T07:21:53;2.73;;;0.97;;
60030;SDS011;45901;47.600;9.890;2022-10-15T07:24:26;1.50;;;0.40;;
60030;SDS011;45901;47.600;9.890;2022-10-15T07:26:53;0.70;;;0.53;;
60030;SDS011;45901;47.600;9.890;2022-10-15T07:29:20;3.43;;;0.60;;
60030;SDS011;45901;47.600;9.890;2022-10-15T07:31:50;0.80;;;0.80;;
60030;SDS011;45901;47.600;9.890;2022-10-15T07:34:17;0.80;;;0.70;;
60030;SDS011;45901;47.600;9.890;2022-10-15T07:36:44;1.13;;;0.60;;
60030;SDS011;45901;47.600;9.890;2022-10-15T07:39:13;1.17;;;0.70;;
60030;SDS011;45901;47.600;9.890;2022-10-15T07:41:43;4.07;;;1.40;;
60030;SDS011;45901;47.600;9.890;2022-10-15T07:44:11;4.47;;;2.23;;
60030;SDS011;45901;47.600;9.890;2022-10-15T07:46:38;1.27;;;0.83;;
60030;SDS011;45901;47.600;9.890;2022-10-15T07:49:05;1.00;;;0.60;;
60030;SDS011;45901;47.600;9.890;2022-10-15T07:51:33;1.83;;;0.57;;
60030;SDS011;45901;47.600;9.890;2022-10-15T07:54:00;1.53;;;0.53;;
60030;SDS011;45901;47.600;9.890;2022-10-15T07:56:29;0.60;;;0.40;;
60030;SDS011;45901;47.600;9.890;2022-10-15T07:58:56;1.63;;;0.70;;
60030;SDS011;45901;47.600;9.890;2022-10-15T08:01:24;1.17;;;0.67;;
60030;SDS011;45901;47.600;9.890;2022-10-15T08:03:51;5.23;;;1.10;;
60030;SDS011;45901;47.600;9.890;2022-10-15T08:06:18;3.90;;;0.90;;
60030;SDS011;45901;47.600;9.890;2022-10-15T08:08:46;2.40;;;0.93;;
60030;SDS011;45901;47.600;9.890;2022-10-15T08:11:14;1.53;;;0.90;;
60030;SDS011;45901;47.600;9.890;2022-10-15T08:13:43;1.40;;;0.70;;
60030;SDS011;45901;47.600;9.890;2022-10-15T08:16:13;3.83;;;0.60;;
60030;SDS011;45901;47.600;9.890;2022-10-15T08:18:43;1.07;;;0.60;;
60030;SDS011;45901;47.600;9.890;2022-10-15T08:21:11;2.03;;;0.60;;
60030;SDS011;45901;47.600;9.890;2022-10-15T08:23:38;3.37;;;0.73;;
60030;SDS011;45901;47.600;9.890;2022-10-15T08:26:09;1.57;;;0.37;;
60030;SDS011;45901;47.600;9.890;2022-10-15T08:28:37;1.77;;;0.67;;
60030;SDS011;45901;47.600;9.890;2022-10-15T08:31:13;1.17;;;0.50;;
60030;SDS011;45901;47.600;9.890;2022-10-15T08:33:43;10.57;;;0.60;;
60030;SDS011;45901;47.600;9.890;2022-10-15T08:36:11;0.40;;;0.40;;
60030;SDS011;45901;47.600;9.890;2022-10-15T08:38:44;2.07;;;0.60;;
60030;SDS011;45901;47.600;9.890;2022-10-15T08:41:38;1.70;;;0.50;;
60030;SDS011;45901;47.600;9.890;2022-10-15T08:45:10;1.17;;;0.50;;
60030;SDS011;45901;47.600;9.890;2022-10-15T08:47:45;1.83;;;0.73;;
60030;SDS011;45901;47.600;9.890;2022-10-15T08:50:52;2.23;;;0.50;;
60030;SDS011;45901;47.600;9.890;2022-10-15T08:53:38;2.40;;;0.40;;
60030;SDS011;45901;47.600;9.890;2022-10-15T08:56:16;0.50;;;0.37;;
60030;SDS011;45901;47.600;9.890;2022-10-15T08:58:50;0.97;;;0.50;;
60030;SDS011;45901;47.600;9.890;2022-10-15T09:01:28;3.90;;;0.50;;
60030;SDS011;45901;47.600;9.890;2022-10-15T09:04:06;0.50;;;0.33;;
60030;SDS011;45901;47.600;9.890;2022-10-15T09:06:43;2.20;;;0.30;;
60030;SDS011;45901;47.600;9.890;2022-10-15T09:09:14;2.27;;;0.70;;
60030;SDS011;45901;47.600;9.890;2022-10-15T09:11:53;0.63;;;0.50;;
60030;SDS011;45901;47.600;9.890;2022-10-15T09:14:36;0.83;;;0.20;;
60030;SDS011;45901;47.600;9.890;2022-10-15T09:20:38;1.57;;;0.63;;
60030;SDS011;45901;47.600;9.890;2022-10-15T12:02:42;1.77;;;0.33;;
60030;SDS011;45901;47.600;9.890;2022-10-15T12:29:19;0.63;;;0.40;;
60030;SDS011;45901;47.600;9.890;2022-10-15T12:32:00;1.53;;;0.50;;
60030;SDS011;45901;47.600;9.890;2022-10-15T12:42:46;2.83;;;0.60;;
60030;SDS011;45901;47.600;9.890;2022-10-15T12:46:33;1.90;;;0.77;;
60030;SDS011;45901;47.600;9.890;2022-10-15T13:47:35;0.47;;;0.30;;
60030;SDS011;45901;47.600;9.890;2022-10-15T13:50:17;4.70;;;0.50;;
60030;SDS011;45901;47.600;9.890;2022-10-15T13:52:49;2.20;;;0.60;;
60030;SDS011;45901;47.600;9.890;2022-10-15T13:55:21;2.37;;;0.30;;
60030;SDS011;45901;47.600;9.890;2022-10-15T13:57:53;0.73;;;0.50;;
60030;SDS011;45901;47.600;9.890;2022-10-15T14:00:28;0.87;;;0.40;;
60030;SDS011;45901;47.600;9.890;2022-10-15T14:03:08;0.63;;;0.40;;
60030;SDS011;45901;47.600;9.890;2022-10-15T14:05:42;2.83;;;0.40;;
60030;SDS011;45901;47.600;9.890;2022-10-15T14:08:14;0.50;;;0.20;;
60030;SDS011;45901;47.600;9.890;2022-10-15T14:10:45;0.77;;;0.30;;
60030;SDS011;45901;47.600;9.890;2022-10-15T14:13:13;0.60;;;0.30;;
60030;SDS011;45901;47.600;9.890;2022-10-15T14:15:43;1.90;;;0.27;;
60030;SDS011;45901;47.600;9.890;2022-10-15T14:18:25;0.73;;;0.40;;
60030;SDS011;45901;47.600;9.890;2022-10-15T14:20:58;2.03;;;0.60;;
60030;SDS011;45901;47.600;9.890;2022-10-15T14:23:27;2.37;;;1.00;;
60030;SDS011;45901;47.600;9.890;2022-10-15T14:25:55;1.40;;;0.60;;
60030;SDS011;45901;47.600;9.890;2022-10-15T17:16:45;8.37;;;5.23;;
60030;SDS011;45901;47.600;9.890;2022-10-15T17:19:20;8.23;;;5.33;;
60030;SDS011;45901;47.600;9.890;2022-10-15T17:25:22;3.63;;;2.23;;
60030;SDS011;45901;47.600;9.890;2022-10-15T17:27:53;5.17;;;1.00;;
60030;SDS011;45901;47.600;9.890;2022-10-15T17:30:38;1.80;;;0.50;;
60030;SDS011;45901;47.600;9.890;2022-10-15T17:33:59;4.43;;;0.93;;
60030;SDS011;45901;47.600;9.890;2022-10-15T17:36:41;3.23;;;1.13;;
60030;SDS011;45901;47.600;9.890;2022-10-15T17:39:29;2.33;;;0.83;;
60030;SDS011;45901;47.600;9.890;2022-10-15T17:42:00;6.43;;;1.00;;
60030;SDS011;45901;47.600;9.890;2022-10-15T17:44:32;1.27;;;0.93;;
60030;SDS011;45901;47.600;9.890;2022-10-15T17:53:14;1.77;;;0.90;;
60030;SDS011;45901;47.600;9.890;2022-10-15T17:55:42;0.90;;;0.70;;
60030;SDS011;45901;47.600;9.890;2022-10-15T17:58:10;1.43;;;0.93;;
60030;SDS011;45901;47.600;9.890;2022-10-15T18:00:49;2.63;;;0.80;;
60030;SDS011;45901;47.600;9.890;2022-10-15T18:03:57;1.47;;;0.87;;
60030;SDS011;45901;47.600;9.890;2022-10-15T18:07:41;2.00;;;0.80;;
60030;SDS011;45901;47.600;9.890;2022-10-15T18:11:03;3.07;;;0.73;;
60030;SDS011;45901;47.600;9.890;2022-10-15T18:13:34;2.10;;;0.73;;
60030;SDS011;45901;47.600;9.890;2022-10-15T18:16:02;2.63;;;1.40;;
60030;SDS011;45901;47.600;9.890;2022-10-15T18:18:35;3.50;;;1.53;;
60030;SDS011;45901;47.600;9.890;2022-10-15T18:21:06;4.43;;;1.70;;
60030;SDS011;45901;47.600;9.890;2022-10-15T18:23:36;4.67;;;1.50;;
60030;SDS011;45901;47.600;9.890;2022-10-15T18:26:05;4.93;;;1.70;;
60030;SDS011;45901;47.600;9.890;2022-10-15T18:28:47;5.30;;;1.87;;
60030;SDS011;45901;47.600;9.890;2022-10-15T18:31:16;1.93;;;0.93;;
60030;SDS011;45901;47.600;9.890;2022-10-15T18:33:50;1.87;;;0.87;;
60030;SDS011;45901;47.600;9.890;2022-10-15T18:36:21;1.23;;;0.70;;
60030;SDS011;45901;47.600;9.890;2022-10-15T18:38:51;2.63;;;0.77;;
60030;SDS011;45901;47.600;9.890;2022-10-15T18:41:21;2.77;;;0.70;;
60030;SDS011;45901;47.600;9.890;2022-10-15T18:43:52;2.67;;;0.60;;
60030;SDS011;45901;47.600;9.890;2022-10-15T18:46:22;2.67;;;0.73;;
60030;SDS011;45901;47.600;9.890;2022-10-15T18:48:50;1.13;;;0.73;;
60030;SDS011;45901;47.600;9.890;2022-10-15T18:51:17;2.97;;;0.83;;
60030;SDS011;45901;47.600;9.890;2022-10-15T18:53:58;3.23;;;0.80;;
60030;SDS011;45901;47.600;9.890;2022-10-15T18:56:26;5.03;;;1.20;;
60030;SDS011;45901;47.600;9.890;2022-10-15T18:58:54;2.47;;;1.00;;
60030;SDS011;45901;47.600;9.890;2022-10-15T19:01:30;2.20;;;0.90;;
60030;SDS011;45901;47.600;9.890;2022-10-15T19:06:50;3.13;;;1.20;;
60030;SDS011;45901;47.600;9.890;2022-10-15T19:09:39;3.63;;;1.40;;
60030;SDS011;45901;47.600;9.890;2022-10-15T19:12:11;2.87;;;1.60;;
60030;SDS011;45901;47.600;9.890;2022-10-15T19:14:56;2.80;;;1.90;;
60030;SDS011;45901;47.600;9.890;2022-10-15T19:17:30;3.17;;;2.00;;
60030;SDS011;45901;47.600;9.890;2022-10-15T19:19:58;2.80;;;1.80;;
60030;SDS011;45901;47.600;9.890;2022-10-15T19:22:37;4.00;;;1.67;;
60030;SDS011;45901;47.600;9.890;2022-10-15T19:27:56;2.63;;;1.50;;
60030;SDS011;45901;47.600;9.890;2022-10-15T19:30:25;3.90;;;1.40;;
60030;SDS011;45901;47.600;9.890;2022-10-15T19:32:53;16.40;;;1.50;;
60030;SDS011;45901;47.600;9.890;2022-10-15T19:35:30;3.53;;;1.43;;
60030;SDS011;45901;47.600;9.890;2022-10-15T19:38:07;3.03;;;1.40;;
60030;SDS011;45901;47.600;9.890;2022-10-15T19:40:38;4.53;;;1.60;;
60030;SDS011;45901;47.600;9.890;2022-10-15T19:43:06;3.07;;;1.70;;
60030;SDS011;45901;47.600;9.890;2022-10-15T19:45:35;2.27;;;1.60;;
60030;SDS011;45901;47.600;9.890;2022-10-15T19:48:03;3.13;;;2.03;;
60030;SDS011;45901;47.600;9.890;2022-10-15T19:50:44;2.83;;;1.73;;
60030;SDS011;45901;47.600;9.890;2022-10-15T19:56:25;3.73;;;1.97;;
60030;SDS011;45901;47.600;9.890;2022-10-15T19:58:53;6.50;;;1.90;;
60030;SDS011;45901;47.600;9.890;2022-10-15T20:01:22;3.10;;;1.60;;
60030;SDS011;45901;47.600;9.890;2022-10-15T20:03:57;7.53;;;1.03;;
60030;SDS011;45901;47.600;9.890;2022-10-15T20:06:29;4.73;;;1.10;;
60030;SDS011;45901;47.600;9.890;2022-10-15T20:09:00;3.10;;;1.37;;
60030;SDS011;45901;47.600;9.890;2022-10-15T20:11:29;2.53;;;2.00;;
60030;SDS011;45901;47.600;9.890;2022-10-15T20:13:57;3.50;;;1.83;;
60030;SDS011;45901;47.600;9.890;2022-10-15T20:16:24;3.13;;;1.47;;
60030;SDS011;45901;47.600;9.890;2022-10-15T20:19:31;1.87;;;1.13;;
60030;SDS011;45901;47.600;9.890;2022-10-15T20:21:47;2.43;;;1.00;;
60030;SDS011;45901;47.600;9.890;2022-10-15T20:24:15;1.53;;;1.00;;
60030;SDS011;45901;47.600;9.890;2022-10-15T20:26:47;3.07;;;0.97;;
60030;SDS011;45901;47.600;9.890;2022-10-15T20:29:17;4.80;;;1.17;;
60030;SDS011;45901;47.600;9.890;2022-10-15T20:31:50;1.70;;;1.00;;
60030;SDS011;45901;47.600;9.890;2022-10-15T20:34:18;2.60;;;1.30;;
60030;SDS011;45901;47.600;9.890;2022-10-15T20:36:51;1.80;;;1.00;;
60030;SDS011;45901;47.600;9.890;2022-10-15T20:39:21;2.33;;;0.83;;
60030;SDS011;45901;47.600;9.890;2022-10-15T20:41:52;3.30;;;1.17;;
60030;SDS011;45901;47.600;9.890;2022-10-15T20:44:20;6.70;;;1.10;;
60030;SDS011;45901;47.600;9.890;2022-10-15T20:46:50;2.87;;;1.10;;
60030;SDS011;45901;47.600;9.890;2022-10-15T20:49:26;2.20;;;1.00;;
60030;SDS011;45901;47.600;9.890;2022-10-15T20:52:13;3.17;;;1.33;;
60030;SDS011;45901;47.600;9.890;2022-10-15T20:54:43;4.43;;;1.67;;
60030;SDS011;45901;47.600;9.890;2022-10-15T20:57:14;3.97;;;1.30;;
60030;SDS011;45901;47.600;9.890;2022-10-15T20:59:45;2.80;;;1.50;;
60030;SDS011;45901;47.600;9.890;2022-10-15T21:02:17;11.27;;;1.80;;
60030;SDS011;45901;47.600;9.890;2022-10-15T21:04:45;2.93;;;1.60;;
60030;SDS011;45901;47.600;9.890;2022-10-15T21:07:14;2.87;;;1.43;;
60030;SDS011;45901;47.600;9.890;2022-10-15T21:09:42;3.20;;;1.47;;
60030;SDS011;45901;47.600;9.890;2022-10-15T21:12:09;5.53;;;1.30;;
60030;SDS011;45901;47.600;9.890;2022-10-15T21:14:38;3.00;;;1.27;;
60030;SDS011;45901;47.600;9.890;2022-10-15T21:17:05;4.60;;;1.83;;
60030;SDS011;45901;47.600;9.890;2022-10-15T21:19:34;5.17;;;1.90;;
60030;SDS011;45901;47.600;9.890;2022-10-15T21:22:01;3.90;;;1.50;;
60030;SDS011;45901;47.600;9.890;2022-10-15T21:24:28;4.10;;;1.80;;
60030;SDS011;45901;47.600;9.890;2022-10-15T21:26:56;2.57;;;1.60;;
60030;SDS011;45901;47.600;9.890;2022-10-15T21:29:23;4.60;;;1.80;;
60030;SDS011;45901;47.600;9.890;2022-10-15T21:31:53;5.67;;;2.03;;
60030;SDS011;45901;47.600;9.890;2022-10-15T21:34:20;3.53;;;1.90;;
60030;SDS011;45901;47.600;9.890;2022-10-15T21:36:51;4.37;;;2.20;;
60030;SDS011;45901;47.600;9.890;2022-10-15T21:39:19;5.53;;;2.70;;
60030;SDS011;45901;47.600;9.890;2022-10-15T21:41:47;12.60;;;5.13;;
60030;SDS011;45901;47.600;9.890;2022-10-15T21:44:15;10.33;;;5.23;;
60030;SDS011;45901;47.600;9.890;2022-10-15T21:46:59;8.67;;;4.50;;
60030;SDS011;45901;47.600;9.890;2022-10-15T21:57:04;2.90;;;1.90;;
60030;SDS011;45901;47.600;9.890;2022-10-15T22:07:31;2.60;;;1.40;;
60030;SDS011;45901;47.600;9.890;2022-10-15T22:10:02;2.13;;;1.40;;
60030;SDS011;45901;47.600;9.890;2022-10-15T22:12:34;2.70;;;1.53;;
60030;SDS011;45901;47.600;9.890;2022-10-15T22:15:38;4.73;;;1.47;;
60030;SDS011;45901;47.600;9.890;2022-10-15T22:18:41;2.27;;;1.40;;
60030;SDS011;45901;47.600;9.890;2022-10-15T22:26:23;4.00;;;1.40;;
60030;SDS011;45901;47.600;9.890;2022-10-15T22:30:02;5.97;;;1.30;;
60030;SDS011;45901;47.600;9.890;2022-10-15T22:32:38;4.20;;;1.13;;
60030;SDS011;45901;47.600;9.890;2022-10-15T22:35:06;4.33;;;1.30;;
60030;SDS011;45901;47.600;9.890;2022-10-15T22:37:33;2.87;;;1.00;;
60030;SDS011;45901;47.600;9.890;2022-10-15T22:40:01;2.80;;;1.40;;
60030;SDS011;45901;47.600;9.890;2022-10-15T22:42:30;3.90;;;1.27;;
60030;SDS011;45901;47.600;9.890;2022-10-15T22:44:57;2.13;;;1.00;;
60030;SDS011;45901;47.600;9.890;2022-10-15T22:47:24;2.50;;;1.20;;
60030;SDS011;45901;47.600;9.890;2022-10-15T22:49:51;2.40;;;1.00;;
60030;SDS011;45901;47.600;9.890;2022-10-15T22:52:19;5.93;;;1.20;;
60030;SDS011;45901;47.600;9.890;2022-10-15T22:54:46;2.27;;;1.20;;
60030;SDS011;45901;47.600;9.890;2022-10-15T22:57:15;6.50;;;1.37;;
60030;SDS011;45901;47.600;9.890;2022-10-15T22:59:43;2.00;;;1.17;;
60030;SDS011;45901;47.600;9.890;2022-10-15T23:02:11;3.07;;;1.40;;
60030;SDS011;45901;47.600;9.890;2022-10-15T23:04:38;4.13;;;1.00;;
60030;SDS011;45901;47.600;9.890;2022-10-15T23:07:05;1.07;;;0.83;;
60030;SDS011;45901;47.600;9.890;2022-10-15T23:09:32;5.40;;;0.83;;
60030;SDS011;45901;47.600;9.890;2022-10-15T23:12:00;3.53;;;1.33;;